createdAt,value
2016-09-13T00:00:26.962Z,24.24
2016-09-13T00:01:26.947Z,24.11
2016-09-13T00:02:26.945Z,24.16
2016-09-13T00:03:26.930Z,24.15
2016-09-13T00:04:26.911Z,24.29
2016-09-13T00:05:26.894Z,24.11
2016-09-13T00:06:26.879Z,24.23
2016-09-13T00:07:26.872Z,24.16
2016-09-13T00:08:26.536Z,24.19
2016-09-13T00:09:26.527Z,24.24
2016-09-13T00:10:26.823Z,24.15
2016-09-13T00:11:26.807Z,24.21
2016-09-13T00:12:26.799Z,24.15
2016-09-13T00:13:26.781Z,24.3
2016-09-13T00:14:26.767Z,24.16
2016-09-13T00:15:26.750Z,24.14
2016-09-13T00:16:26.735Z,24.12
2016-09-13T00:17:26.724Z,24.12
2016-09-13T00:18:26.716Z,24.16
2016-09-13T00:19:26.693Z,24.16
2016-09-13T00:20:26.362Z,24.12
2016-09-13T00:21:26.662Z,24.3
2016-09-13T00:22:26.331Z,24.15
2016-09-13T00:23:26.640Z,24.26
2016-09-13T00:24:26.307Z,24.18
2016-09-13T00:25:26.289Z,24.14
2016-09-13T00:26:26.591Z,24.14
2016-09-13T00:27:26.576Z,24.15
2016-09-13T00:28:26.559Z,24.15
2016-09-13T00:29:26.231Z,24.18
2016-09-13T00:30:26.532Z,24.12
2016-09-13T00:31:26.520Z,24.15
2016-09-13T00:32:26.201Z,24.15
2016-09-13T00:33:26.489Z,24.14
2016-09-13T00:34:26.472Z,24.15
2016-09-13T00:35:26.155Z,24.16
2016-09-13T00:36:26.455Z,24.19
2016-09-13T00:37:26.429Z,24.14
2016-09-13T00:38:26.422Z,24.18
2016-09-13T00:39:26.404Z,24.18
2016-09-13T00:40:26.385Z,24.14
2016-09-13T00:41:26.062Z,24.16
2016-09-13T00:42:26.365Z,24.14
2016-09-13T00:43:26.037Z,24.18
2016-09-13T00:44:26.334Z,24.15
2016-09-13T00:45:26.304Z,24.21
2016-09-13T00:46:26.303Z,24.15
2016-09-13T00:47:26.297Z,24.14
2016-09-13T00:48:26.274Z,24.16
2016-09-13T00:49:26.264Z,24.14
2016-09-13T00:50:26.243Z,24.12
2016-09-13T00:51:25.914Z,24.14
2016-09-13T00:52:26.212Z,24.12
2016-09-13T00:53:26.201Z,24.12
2016-09-13T00:54:26.190Z,24.09
2016-09-13T00:55:25.866Z,24.06
2016-09-13T00:56:26.153Z,24.06
2016-09-13T00:57:26.139Z,24.06
2016-09-13T00:58:25.813Z,24.12
2016-09-13T00:59:25.792Z,24.12
2016-09-13T01:00:25.781Z,24.09
2016-09-13T01:01:25.769Z,24.16
2016-09-13T01:02:25.764Z,24.12
2016-09-13T01:03:25.738Z,24.08
2016-09-13T01:04:26.042Z,24.08
2016-09-13T01:05:26.022Z,24.18
2016-09-13T01:06:25.387Z,24.14
2016-09-13T01:07:26.008Z,24.14
2016-09-13T01:08:25.674Z,24.14
2016-09-13T01:09:25.969Z,24.12
2016-09-13T01:10:25.945Z,24.12
2016-09-13T01:11:25.949Z,24.09
2016-09-13T01:12:25.929Z,24.14
2016-09-13T01:13:25.910Z,24.11
2016-09-13T01:14:25.902Z,24.09
2016-09-13T01:15:25.884Z,24.12
2016-09-13T01:16:25.549Z,24.11
2016-09-13T01:17:25.539Z,24.11
2016-09-13T01:18:25.839Z,24.11
2016-09-13T01:19:25.824Z,24.21
2016-09-13T01:20:25.804Z,24.09
2016-09-13T01:21:25.807Z,24.05
2016-09-13T01:22:25.781Z,24.11
2016-09-13T01:23:25.765Z,24.12
2016-09-13T01:24:25.749Z,24.05
2016-09-13T01:25:25.734Z,24.05
2016-09-13T01:26:25.724Z,24.06
2016-09-13T01:27:25.707Z,24.14
2016-09-13T01:28:25.692Z,24.06
2016-09-13T01:29:25.684Z,24.16
2016-09-13T01:30:25.345Z,24.05
2016-09-13T01:31:25.017Z,24.11
2016-09-13T01:32:25.643Z,24.14
2016-09-13T01:33:25.622Z,24.14
2016-09-13T01:34:25.607Z,24.09
2016-09-13T01:35:25.587Z,24.14
2016-09-13T01:36:25.274Z,24.16
2016-09-13T01:37:25.571Z,24
2016-09-13T01:38:25.557Z,24.11
2016-09-13T01:39:25.229Z,24.16
2016-09-13T01:40:25.517Z,24
2016-09-13T01:41:25.514Z,24.05
2016-09-13T01:42:25.177Z,24.09
2016-09-13T01:43:25.500Z,24.09
2016-09-13T01:44:25.461Z,24.15
2016-09-13T01:45:25.131Z,24.12
2016-09-13T01:46:25.438Z,24.12
2016-09-13T01:47:25.110Z,24.11
2016-09-13T01:48:25.407Z,24.05
2016-09-13T01:49:25.390Z,24.09
2016-09-13T01:50:25.393Z,24.11
2016-09-13T01:51:25.373Z,24.08
2016-09-13T01:52:25.029Z,24.15
2016-09-13T01:53:25.334Z,24.09
2016-09-13T01:54:24.999Z,24.11
2016-09-13T01:55:25.302Z,24.05
2016-09-13T01:56:24.979Z,24.16
2016-09-13T01:57:25.279Z,24.06
2016-09-13T01:58:25.260Z,24.15
2016-09-13T01:59:25.247Z,24.06
2016-09-13T02:00:24.915Z,24.05
2016-09-13T02:01:25.220Z,24.08
2016-09-13T02:02:24.881Z,24.11
2016-09-13T02:03:24.869Z,24.09
2016-09-13T02:04:25.171Z,24.02
2016-09-13T02:05:25.161Z,24.09
2016-09-13T02:06:25.147Z,23.99
2016-09-13T02:07:25.139Z,24.11
2016-09-13T02:08:24.798Z,24.05
2016-09-13T02:09:25.103Z,24.15
2016-09-13T02:10:25.081Z,24.09
2016-09-13T02:11:24.762Z,24.04
2016-09-13T02:12:25.058Z,24.06
2016-09-13T02:13:25.043Z,24.11
2016-09-13T02:14:24.718Z,24.06
2016-09-13T02:15:24.705Z,24.12
2016-09-13T02:16:24.998Z,24.11
2016-09-13T02:17:24.673Z,24.09
2016-09-13T02:18:24.965Z,24.06
2016-09-13T02:19:24.958Z,24.08
2016-09-13T02:20:24.939Z,24.04
2016-09-13T02:21:24.928Z,23.97
2016-09-13T02:22:24.907Z,24.06
2016-09-13T02:23:24.906Z,23.96
2016-09-13T02:24:24.571Z,23.99
2016-09-13T02:25:24.551Z,23.94
2016-09-13T02:26:24.856Z,24.06
2016-09-13T02:27:24.523Z,24.08
2016-09-13T02:28:24.826Z,23.99
2016-09-13T02:29:24.809Z,24.02
2016-09-13T02:30:24.790Z,23.87
2016-09-13T02:31:24.780Z,23.93
2016-09-13T02:32:24.473Z,24.02
2016-09-13T02:33:24.748Z,23.94
2016-09-13T02:34:24.422Z,23.94
2016-09-13T02:35:24.114Z,23.92
2016-09-13T02:36:24.713Z,23.97
2016-09-13T02:37:24.699Z,23.96
2016-09-13T02:38:24.673Z,23.97
2016-09-13T02:39:24.347Z,23.96
2016-09-13T02:40:24.339Z,24
2016-09-13T02:41:24.628Z,23.97
2016-09-13T02:42:24.617Z,24
2016-09-13T02:43:24.291Z,24
2016-09-13T02:44:24.586Z,24.08
2016-09-13T02:45:24.269Z,23.92
2016-09-13T02:46:24.558Z,23.94
2016-09-13T02:47:24.547Z,24.11
2016-09-13T02:48:24.540Z,23.94
2016-09-13T02:49:24.511Z,24.02
2016-09-13T02:50:24.503Z,23.96
2016-09-13T02:51:24.175Z,24.02
2016-09-13T02:52:24.472Z,23.9
2016-09-13T02:53:24.467Z,24
2016-09-13T02:54:24.450Z,23.97
2016-09-13T02:55:24.430Z,23.9
2016-09-13T02:56:24.104Z,24.02
2016-09-13T02:57:24.407Z,23.97
2016-09-13T02:58:24.387Z,23.97
2016-09-13T02:59:24.072Z,23.93
2016-09-13T03:00:24.362Z,24
2016-09-13T03:01:24.343Z,23.87
2016-09-13T03:02:24.023Z,23.94
2016-09-13T03:03:24.003Z,23.97
2016-09-13T03:04:23.984Z,23.96
2016-09-13T03:05:24.280Z,23.97
2016-09-13T03:06:24.286Z,23.97
2016-09-13T03:07:24.256Z,23.96
2016-09-13T03:08:23.613Z,23.94
2016-09-13T03:09:24.228Z,24
2016-09-13T03:10:24.214Z,23.99
2016-09-13T03:11:24.195Z,24.06
2016-09-13T03:12:24.184Z,24
2016-09-13T03:13:24.167Z,24.06
2016-09-13T03:14:23.522Z,24.04
2016-09-13T03:15:24.140Z,24.02
2016-09-13T03:16:23.492Z,23.96
2016-09-13T03:17:24.109Z,23.93
2016-09-13T03:18:24.097Z,23.9
2016-09-13T03:19:23.766Z,23.97
2016-09-13T03:20:23.758Z,23.97
2016-09-13T03:21:24.052Z,23.96
2016-09-13T03:22:24.112Z,23.94
2016-09-13T03:23:23.717Z,23.99
2016-09-13T03:24:23.694Z,23.97
2016-09-13T03:25:23.688Z,23.92
2016-09-13T03:26:23.981Z,23.9
2016-09-13T03:27:23.663Z,23.9
2016-09-13T03:28:23.956Z,23.9
2016-09-13T03:29:23.934Z,23.9
2016-09-13T03:30:23.929Z,23.93
2016-09-13T03:31:23.938Z,23.92
2016-09-13T03:32:23.583Z,23.89
2016-09-13T03:33:23.887Z,23.89
2016-09-13T03:34:23.870Z,23.9
2016-09-13T03:35:23.857Z,23.92
2016-09-13T03:36:23.833Z,23.86
2016-09-13T03:37:23.508Z,23.75
2016-09-13T03:38:23.503Z,23.79
2016-09-13T03:39:23.802Z,23.81
2016-09-13T03:40:23.464Z,23.82
2016-09-13T03:41:23.451Z,23.78
2016-09-13T03:42:23.748Z,23.82
2016-09-13T03:43:23.413Z,23.81
2016-09-13T03:44:23.400Z,23.93
2016-09-13T03:45:23.751Z,23.89
2016-09-13T03:46:23.689Z,23.82
2016-09-13T03:47:23.678Z,23.86
2016-09-13T03:48:23.656Z,23.87
2016-09-13T03:49:23.642Z,23.89
2016-09-13T03:50:23.634Z,23.87
2016-09-13T03:51:23.303Z,23.87
2016-09-13T03:52:23.599Z,23.84
2016-09-13T03:53:23.589Z,23.87
2016-09-13T03:54:23.565Z,23.86
2016-09-13T03:55:23.552Z,23.79
2016-09-13T03:56:23.548Z,23.84
2016-09-13T03:57:23.526Z,23.89
2016-09-13T03:58:23.199Z,23.89
2016-09-13T03:59:23.499Z,23.86
2016-09-13T04:00:23.180Z,23.93
2016-09-13T04:01:23.162Z,23.92
2016-09-13T04:02:23.451Z,23.84
2016-09-13T04:03:23.440Z,23.87
2016-09-13T04:04:23.119Z,23.92
2016-09-13T04:05:23.093Z,23.86
2016-09-13T04:06:22.773Z,23.77
2016-09-13T04:07:23.383Z,23.87
2016-09-13T04:08:23.061Z,23.86
2016-09-13T04:09:23.035Z,23.81
2016-09-13T04:10:23.026Z,23.86
2016-09-13T04:11:23.323Z,23.82
2016-09-13T04:12:22.994Z,23.77
2016-09-13T04:13:23.292Z,23.78
2016-09-13T04:14:23.280Z,23.78
2016-09-13T04:15:22.947Z,23.77
2016-09-13T04:16:23.249Z,23.79
2016-09-13T04:17:22.920Z,23.77
2016-09-13T04:18:23.224Z,23.72
2016-09-13T04:19:22.576Z,23.77
2016-09-13T04:20:23.194Z,23.72
2016-09-13T04:21:23.178Z,23.79
2016-09-13T04:22:23.165Z,23.77
2016-09-13T04:23:22.835Z,23.69
2016-09-13T04:24:22.821Z,23.78
2016-09-13T04:25:22.806Z,23.75
2016-09-13T04:26:23.105Z,23.77
2016-09-13T04:27:23.087Z,23.75
2016-09-13T04:28:22.760Z,23.82
2016-09-13T04:29:23.059Z,23.77
2016-09-13T04:30:23.043Z,23.82
2016-09-13T04:31:23.040Z,23.74
2016-09-13T04:32:23.015Z,23.77
2016-09-13T04:33:22.999Z,23.79
2016-09-13T04:34:22.987Z,23.67
2016-09-13T04:35:22.659Z,23.77
2016-09-13T04:36:22.955Z,23.86
2016-09-13T04:37:22.938Z,23.77
2016-09-13T04:38:22.933Z,23.79
2016-09-13T04:39:22.598Z,23.77
2016-09-13T04:40:22.901Z,23.74
2016-09-13T04:41:22.929Z,23.78
2016-09-13T04:42:22.872Z,23.75
2016-09-13T04:43:22.854Z,23.74
2016-09-13T04:44:22.836Z,23.75
2016-09-13T04:45:22.825Z,23.75
2016-09-13T04:46:22.485Z,23.69
2016-09-13T04:47:22.793Z,23.79
2016-09-13T04:48:22.782Z,23.69
2016-09-13T04:49:22.446Z,23.74
2016-09-13T04:50:22.433Z,23.64
2016-09-13T04:51:22.413Z,23.77
2016-09-13T04:52:22.402Z,23.82
2016-09-13T04:53:22.713Z,23.68
2016-09-13T04:54:22.373Z,23.78
2016-09-13T04:55:22.671Z,23.64
2016-09-13T04:56:22.344Z,23.67
2016-09-13T04:57:22.639Z,23.6
2016-09-13T04:58:22.637Z,23.68
2016-09-13T04:59:22.634Z,23.67
2016-09-13T05:00:22.605Z,23.62
2016-09-13T05:01:22.273Z,23.71
2016-09-13T05:02:22.574Z,23.68
2016-09-13T05:03:22.554Z,23.62
2016-09-13T05:04:22.537Z,23.67
2016-09-13T05:05:22.218Z,23.67
2016-09-13T05:06:22.520Z,23.69
2016-09-13T05:07:22.183Z,23.6
2016-09-13T05:08:22.480Z,23.57
2016-09-13T05:09:22.464Z,23.67
2016-09-13T05:10:22.141Z,23.63
2016-09-13T05:11:22.133Z,23.62
2016-09-13T05:12:22.426Z,23.64
2016-09-13T05:13:22.397Z,23.67
2016-09-13T05:14:22.080Z,23.67
2016-09-13T05:15:22.057Z,23.63
2016-09-13T05:16:22.061Z,23.68
2016-09-13T05:17:22.354Z,23.67
2016-09-13T05:18:22.331Z,23.6
2016-09-13T05:19:22.005Z,23.57
2016-09-13T05:20:22.305Z,23.64
2016-09-13T05:21:22.294Z,23.69
2016-09-13T05:22:22.276Z,23.74
2016-09-13T05:23:22.264Z,23.63
2016-09-13T05:24:22.247Z,23.64
2016-09-13T05:25:22.234Z,23.62
2016-09-13T05:26:21.899Z,23.56
2016-09-13T05:27:22.200Z,23.62
2016-09-13T05:28:22.190Z,23.6
2016-09-13T05:29:22.185Z,23.53
2016-09-13T05:30:22.175Z,23.49
2016-09-13T05:31:22.144Z,23.57
2016-09-13T05:32:22.127Z,23.49
2016-09-13T05:33:21.802Z,23.57
2016-09-13T05:34:22.098Z,23.63
2016-09-13T05:35:22.083Z,23.52
2016-09-13T05:36:22.064Z,23.56
2016-09-13T05:37:21.739Z,23.6
2016-09-13T05:38:22.037Z,23.64
2016-09-13T05:39:21.713Z,23.68
2016-09-13T05:40:21.696Z,23.63
2016-09-13T05:41:21.366Z,23.62
2016-09-13T05:42:21.676Z,23.56
2016-09-13T05:43:21.963Z,23.53
2016-09-13T05:44:21.633Z,23.62
2016-09-13T05:45:21.307Z,23.62
2016-09-13T05:46:21.620Z,23.62
2016-09-13T05:47:21.593Z,23.56
2016-09-13T05:48:21.572Z,23.63
2016-09-13T05:49:21.876Z,23.6
2016-09-13T05:50:21.861Z,23.62
2016-09-13T05:51:21.538Z,23.69
2016-09-13T05:52:21.825Z,23.62
2016-09-13T05:53:21.503Z,23.62
2016-09-13T05:54:21.489Z,23.68
2016-09-13T05:55:21.781Z,23.64
2016-09-13T05:56:21.770Z,23.69
2016-09-13T05:57:21.756Z,23.6
2016-09-13T05:58:21.745Z,23.59
2016-09-13T05:59:21.423Z,23.71
2016-09-13T06:00:21.715Z,23.64
2016-09-13T06:01:21.704Z,23.68
2016-09-13T06:02:21.364Z,23.56
2016-09-13T06:03:21.668Z,23.68
2016-09-13T06:04:21.662Z,23.59
2016-09-13T06:05:21.647Z,23.67
2016-09-13T06:06:21.625Z,23.69
2016-09-13T06:07:21.607Z,23.63
2016-09-13T06:08:21.600Z,23.62
2016-09-13T06:09:21.579Z,23.64
2016-09-13T06:10:21.568Z,23.64
2016-09-13T06:11:21.232Z,23.64
2016-09-13T06:12:21.544Z,23.67
2016-09-13T06:13:21.207Z,23.71
2016-09-13T06:14:21.517Z,23.62
2016-09-13T06:15:21.489Z,23.62
2016-09-13T06:16:21.163Z,23.63
2016-09-13T06:17:21.460Z,23.64
2016-09-13T06:18:21.134Z,23.64
2016-09-13T06:19:21.433Z,23.64
2016-09-13T06:20:21.421Z,23.67
2016-09-13T06:21:21.400Z,23.64
2016-09-13T06:22:21.073Z,23.63
2016-09-13T06:23:21.065Z,23.6
2016-09-13T06:24:21.363Z,23.63
2016-09-13T06:25:21.340Z,23.67
2016-09-13T06:26:21.331Z,23.78
2016-09-13T06:27:20.996Z,23.74
2016-09-13T06:28:20.987Z,23.77
2016-09-13T06:29:21.282Z,23.75
2016-09-13T06:30:21.273Z,23.79
2016-09-13T06:31:21.252Z,23.78
2016-09-13T06:32:21.241Z,23.77
2016-09-13T06:33:21.229Z,23.84
2016-09-13T06:34:20.897Z,23.82
2016-09-13T06:35:20.567Z,23.84
2016-09-13T06:36:20.555Z,23.87
2016-09-13T06:37:21.166Z,23.82
2016-09-13T06:38:21.154Z,23.87
2016-09-13T06:39:20.824Z,23.79
2016-09-13T06:40:21.127Z,23.9
2016-09-13T06:41:20.796Z,23.82
2016-09-13T06:42:20.780Z,23.77
2016-09-13T06:43:21.075Z,23.86
2016-09-13T06:44:20.750Z,23.79
2016-09-13T06:45:20.732Z,23.84
2016-09-13T06:46:21.037Z,23.82
2016-09-13T06:47:21.018Z,23.84
2016-09-13T06:48:21.006Z,23.89
2016-09-13T06:49:20.985Z,23.86
2016-09-13T06:50:20.982Z,23.86
2016-09-13T06:51:20.644Z,23.96
2016-09-13T06:52:20.947Z,23.92
2016-09-13T06:53:20.927Z,23.96
2016-09-13T06:54:20.937Z,23.93
2016-09-13T06:55:20.898Z,23.99
2016-09-13T06:56:20.899Z,23.87
2016-09-13T06:57:20.562Z,23.97
2016-09-13T06:58:20.859Z,23.92
2016-09-13T06:59:20.841Z,23.96
2016-09-13T07:00:20.829Z,24
2016-09-13T07:01:20.811Z,24
2016-09-13T07:02:20.795Z,24.06
2016-09-13T07:03:20.488Z,24
2016-09-13T07:04:20.773Z,24.05
2016-09-13T07:05:20.445Z,24.06
2016-09-13T07:06:20.741Z,23.99
2016-09-13T07:07:20.726Z,24.09
2016-09-13T07:08:20.708Z,24.09
2016-09-13T07:09:20.700Z,24.06
2016-09-13T07:10:20.372Z,24.05
2016-09-13T07:11:20.676Z,24.06
2016-09-13T07:12:20.656Z,24.12
2016-09-13T07:13:20.634Z,24.08
2016-09-13T07:14:20.315Z,24.12
2016-09-13T07:15:20.607Z,24.06
2016-09-13T07:16:20.599Z,24.05
2016-09-13T07:17:20.263Z,24.11
2016-09-13T07:18:20.261Z,24.14
2016-09-13T07:19:20.556Z,24.08
2016-09-13T07:20:20.206Z,24.11
2016-09-13T07:21:20.526Z,23.97
2016-09-13T07:22:19.878Z,24.08
2016-09-13T07:23:20.188Z,24.16
2016-09-13T07:24:20.472Z,24.05
2016-09-13T07:25:20.458Z,24.06
2016-09-13T07:26:20.133Z,24.04
2016-09-13T07:27:20.449Z,24
2016-09-13T07:28:20.426Z,24.12
2016-09-13T07:29:20.089Z,24.04
2016-09-13T07:30:20.389Z,24.05
2016-09-13T07:31:20.384Z,24.08
2016-09-13T07:32:20.047Z,24.19
2016-09-13T07:33:20.359Z,24.08
2016-09-13T07:34:20.021Z,24.02
2016-09-13T07:35:20.324Z,24.14
2016-09-13T07:36:20.304Z,24.16
2016-09-13T07:37:20.294Z,24.05
2016-09-13T07:38:20.280Z,24.16
2016-09-13T07:39:20.266Z,24.19
2016-09-13T07:40:20.243Z,24.18
2016-09-13T07:41:19.914Z,24.15
2016-09-13T07:42:20.205Z,24.14
2016-09-13T07:43:20.208Z,24.21
2016-09-13T07:44:20.193Z,24.15
2016-09-13T07:45:19.876Z,24.21
2016-09-13T07:46:19.840Z,24.16
2016-09-13T07:47:20.144Z,24.18
2016-09-13T07:48:20.129Z,24.24
2016-09-13T07:49:20.113Z,24.29
2016-09-13T07:50:19.784Z,24.27
2016-09-13T07:51:20.084Z,24.19
2016-09-13T07:52:20.094Z,24.27
2016-09-13T07:53:19.734Z,24.18
2016-09-13T07:54:20.051Z,24.12
2016-09-13T07:55:20.030Z,24.27
2016-09-13T08:11:42.182Z,24.27
2016-09-13T08:12:23.630Z,24.31
2016-09-13T08:13:23.933Z,24.34
2016-09-13T08:14:23.916Z,24.34
2016-09-13T08:15:23.900Z,24.26
2016-09-13T08:16:23.895Z,24.3
2016-09-13T08:17:23.880Z,24.41
2016-09-13T08:18:23.852Z,24.33
2016-09-13T08:19:23.532Z,24.39
2016-09-13T08:20:23.829Z,24.27
2016-09-13T08:21:23.809Z,24.37
2016-09-13T08:25:38.056Z,24.36
2016-09-13T08:26:37.705Z,24.42
2016-09-13T08:27:37.691Z,24.44
2016-09-13T08:28:37.360Z,24.37
2016-09-13T08:29:37.651Z,24.36
2016-09-13T08:30:37.014Z,24.42
2016-09-13T08:31:37.319Z,24.34
2016-09-13T08:32:37.613Z,24.39
2016-09-13T08:33:37.603Z,24.37
2016-09-13T08:34:37.586Z,24.37
2016-09-13T08:35:37.571Z,24.37
2016-09-13T08:36:37.556Z,24.44
2016-09-13T08:37:37.551Z,24.44
2016-09-13T08:38:37.530Z,24.44
2016-09-13T08:39:37.198Z,24.44
2016-09-13T08:40:37.183Z,24.36
2016-09-13T08:41:37.184Z,24.37
2016-09-13T08:42:37.474Z,24.49
2016-09-13T08:43:36.830Z,24.45
2016-09-13T08:44:37.443Z,24.46
2016-09-13T08:45:37.427Z,24.51
2016-09-13T08:46:37.100Z,24.42
2016-09-13T08:47:37.408Z,24.42
2016-09-13T08:48:37.068Z,24.44
2016-09-13T08:49:37.053Z,24.44
2016-09-13T08:50:37.356Z,24.45
2016-09-13T08:51:37.350Z,24.48
2016-09-13T08:52:37.330Z,24.44
2016-09-13T08:53:36.687Z,24.48
2016-09-13T08:54:36.993Z,24.45
2016-09-13T08:55:37.277Z,24.49
2016-09-13T08:56:37.267Z,24.45
2016-09-13T08:57:36.944Z,24.51
2016-09-13T08:58:37.250Z,24.49
2016-09-13T08:59:37.230Z,24.46
2016-09-13T09:00:37.214Z,24.48
2016-09-13T09:01:37.205Z,24.46
2016-09-13T09:02:37.200Z,24.51
2016-09-13T09:03:37.167Z,24.46
2016-09-13T09:04:36.844Z,24.44
2016-09-13T09:05:36.820Z,24.48
2016-09-13T09:06:36.812Z,24.42
2016-09-13T09:07:37.105Z,24.42
2016-09-13T09:08:36.793Z,24.45
2016-09-13T09:09:37.090Z,24.48
2016-09-13T09:10:36.754Z,24.44
2016-09-13T09:11:37.054Z,24.44
2016-09-13T09:12:36.719Z,24.46
2016-09-13T09:13:37.025Z,24.48
2016-09-13T09:14:37.022Z,24.46
2016-09-13T09:15:36.685Z,24.51
2016-09-13T09:16:36.993Z,24.48
2016-09-13T09:17:36.969Z,24.46
2016-09-13T09:18:36.951Z,24.48
2016-09-13T09:19:36.946Z,24.44
2016-09-13T09:20:36.934Z,24.46
2016-09-13T09:21:36.908Z,24.42
2016-09-13T09:22:36.900Z,24.46
2016-09-13T09:23:36.875Z,24.49
2016-09-13T09:24:36.550Z,24.45
2016-09-13T09:25:36.531Z,24.46
2016-09-13T09:26:36.812Z,24.46
2016-09-13T09:27:36.758Z,24.46
2016-09-13T09:28:36.759Z,24.44
2016-09-13T09:29:36.432Z,24.46
2016-09-13T09:30:36.757Z,24.44
2016-09-13T09:31:36.712Z,24.44
2016-09-13T09:32:36.414Z,24.51
2016-09-13T09:33:36.372Z,24.48
2016-09-13T09:34:36.408Z,24.46
2016-09-13T09:35:36.705Z,24.48
2016-09-13T09:36:36.671Z,24.51
2016-09-13T09:37:36.679Z,24.51
2016-09-13T09:38:36.700Z,24.45
2016-09-13T09:39:36.324Z,24.48
2016-09-13T09:40:36.622Z,24.48
2016-09-13T09:41:36.287Z,24.45
2016-09-13T09:42:36.590Z,24.48
2016-09-13T09:43:36.568Z,24.44
2016-09-13T09:44:36.249Z,24.45
2016-09-13T09:45:36.549Z,24.49
2016-09-13T09:46:36.534Z,24.51
2016-09-13T09:47:36.527Z,24.46
2016-09-13T09:48:36.503Z,24.52
2016-09-13T09:49:36.492Z,24.48
2016-09-13T09:50:36.473Z,24.44
2016-09-13T09:51:36.482Z,24.48
2016-09-13T09:52:36.444Z,24.51
2016-09-13T09:53:36.140Z,24.51
2016-09-13T09:54:36.414Z,24.51
2016-09-13T09:55:36.415Z,24.51
2016-09-13T09:56:36.389Z,24.49
2016-09-13T09:57:36.065Z,24.49
2016-09-13T09:58:36.356Z,24.52
2016-09-13T09:59:36.345Z,24.51
2016-09-13T10:00:36.338Z,24.55
2016-09-13T10:01:36.311Z,24.56
2016-09-13T10:02:36.297Z,24.55
2016-09-13T10:03:36.294Z,24.52
2016-09-13T10:04:36.275Z,24.61
2016-09-13T10:05:36.261Z,24.52
2016-09-13T10:06:35.934Z,24.51
2016-09-13T10:07:35.923Z,24.53
2016-09-13T10:08:36.234Z,24.6
2016-09-13T10:09:36.225Z,24.46
2016-09-13T10:10:36.207Z,24.55
2016-09-13T10:11:36.198Z,24.59
2016-09-13T10:12:36.180Z,24.51
2016-09-13T10:13:36.166Z,24.56
2016-09-13T10:14:35.853Z,24.56
2016-09-13T10:15:35.835Z,24.59
2016-09-13T10:16:35.817Z,24.55
2016-09-13T10:17:36.112Z,24.56
2016-09-13T10:18:36.096Z,24.56
2016-09-13T10:19:36.087Z,24.52
2016-09-13T10:20:36.069Z,24.53
2016-09-13T10:21:36.068Z,24.56
2016-09-13T10:22:36.057Z,24.6
2016-09-13T10:23:36.232Z,24.56
2016-09-13T10:24:36.009Z,24.52
2016-09-13T10:25:36.003Z,24.52
2016-09-13T10:26:35.672Z,24.6
2016-09-13T10:27:35.977Z,24.6
2016-09-13T10:28:35.954Z,24.61
2016-09-13T10:29:35.943Z,24.59
2016-09-13T10:30:35.612Z,24.59
2016-09-13T10:31:35.911Z,24.63
2016-09-13T10:32:35.895Z,24.61
2016-09-13T10:33:35.884Z,24.63
2016-09-13T10:34:35.553Z,24.59
2016-09-13T10:35:35.856Z,24.61
2016-09-13T10:36:35.855Z,24.64
2016-09-13T10:37:35.510Z,24.67
2016-09-13T10:38:35.855Z,24.66
2016-09-13T10:39:35.802Z,24.61
2016-09-13T10:40:35.794Z,24.59
2016-09-13T10:41:35.449Z,24.66
2016-09-13T10:42:35.760Z,24.64
2016-09-13T10:43:35.742Z,24.64
2016-09-13T10:44:35.410Z,24.63
2016-09-13T10:45:35.731Z,24.66
2016-09-13T10:46:35.707Z,24.6
2016-09-13T10:47:35.682Z,24.66
2016-09-13T10:48:35.669Z,24.63
2016-09-13T10:49:35.337Z,24.64
2016-09-13T10:50:35.657Z,24.66
2016-09-13T10:51:35.315Z,24.61
2016-09-13T10:52:35.614Z,24.67
2016-09-13T10:53:35.281Z,24.67
2016-09-13T10:54:35.584Z,24.67
2016-09-13T10:55:35.564Z,24.67
2016-09-13T10:56:35.551Z,24.74
2016-09-13T10:57:35.547Z,24.7
2016-09-13T10:58:35.529Z,24.67
2016-09-13T10:59:35.518Z,24.64
2016-09-13T11:00:35.187Z,24.67
2016-09-13T11:01:35.487Z,24.67
2016-09-13T11:02:35.473Z,24.68
2016-09-13T11:03:35.141Z,24.68
2016-09-13T11:04:35.446Z,24.7
2016-09-13T11:05:35.432Z,24.67
2016-09-13T11:06:35.421Z,24.71
2016-09-13T11:07:35.402Z,24.63
2016-09-13T11:08:35.067Z,24.7
2016-09-13T11:09:35.058Z,24.7
2016-09-13T11:10:35.412Z,24.66
2016-09-13T11:11:35.346Z,24.68
2016-09-13T11:12:35.322Z,24.67
2016-09-13T11:13:35.316Z,24.68
2016-09-13T11:14:35.301Z,24.64
2016-09-13T11:15:35.297Z,24.7
2016-09-13T11:16:35.265Z,24.66
2016-09-13T11:17:34.638Z,24.64
2016-09-13T11:18:34.926Z,24.64
2016-09-13T11:19:35.233Z,24.68
2016-09-13T11:20:35.236Z,24.64
2016-09-13T11:21:35.195Z,24.7
2016-09-13T11:22:34.873Z,24.63
2016-09-13T11:23:35.174Z,24.77
2016-09-13T11:24:35.160Z,24.61
2016-09-13T11:25:34.828Z,24.64
2016-09-13T11:26:35.131Z,24.7
2016-09-13T11:27:34.805Z,24.67
2016-09-13T11:28:35.110Z,24.67
2016-09-13T11:29:35.098Z,24.63
2016-09-13T11:30:35.074Z,24.71
2016-09-13T11:31:34.744Z,24.66
2016-09-13T11:32:34.729Z,24.63
2016-09-13T11:33:34.713Z,24.59
2016-09-13T11:34:35.021Z,24.61
2016-09-13T11:35:35.003Z,24.7
2016-09-13T11:36:34.984Z,24.74
2016-09-13T11:37:34.658Z,24.74
2016-09-13T11:38:34.962Z,24.61
2016-09-13T11:39:34.958Z,24.8
2016-09-13T11:40:34.930Z,24.64
2016-09-13T11:41:34.918Z,24.68
2016-09-13T11:42:34.899Z,24.67
2016-09-13T11:43:34.575Z,24.71
2016-09-13T11:44:34.874Z,24.7
2016-09-13T11:45:34.231Z,24.64
2016-09-13T11:46:34.525Z,24.75
2016-09-13T11:47:34.511Z,24.63
2016-09-13T11:48:34.812Z,24.74
2016-09-13T11:49:34.491Z,24.7
2016-09-13T11:50:34.781Z,24.71
2016-09-13T11:51:34.779Z,24.77
2016-09-13T11:52:34.447Z,24.74
2016-09-13T11:53:34.429Z,24.77
2016-09-13T11:54:34.739Z,24.75
2016-09-13T11:55:34.412Z,24.79
2016-09-13T11:56:34.702Z,24.74
2016-09-13T11:57:34.370Z,24.75
2016-09-13T11:58:34.674Z,24.77
2016-09-13T11:59:34.655Z,24.77
2016-09-13T12:00:34.328Z,24.79
2016-09-13T12:01:34.627Z,24.74
2016-09-13T12:02:34.290Z,24.77
2016-09-13T12:03:34.285Z,24.82
2016-09-13T12:04:34.591Z,24.77
2016-09-13T12:05:34.260Z,24.82
2016-09-13T12:06:34.247Z,24.8
2016-09-13T12:07:33.915Z,24.8
2016-09-13T12:08:34.528Z,24.74
2016-09-13T12:09:34.518Z,24.77
2016-09-13T12:10:34.502Z,24.86
2016-09-13T12:11:34.485Z,24.74
2016-09-13T12:12:34.471Z,24.77
2016-09-13T12:13:34.454Z,24.8
2016-09-13T12:14:34.444Z,24.75
2016-09-13T12:15:34.433Z,24.79
2016-09-13T12:16:34.097Z,24.8
2016-09-13T12:17:34.080Z,24.74
2016-09-13T12:18:33.748Z,24.79
2016-09-13T12:19:34.056Z,24.74
2016-09-13T12:20:34.035Z,24.77
2016-09-13T12:21:34.349Z,24.77
2016-09-13T12:22:34.321Z,24.77
2016-09-13T12:23:34.326Z,24.77
2016-09-13T12:24:34.295Z,24.8
2016-09-13T12:25:33.983Z,24.74
2016-09-13T12:26:34.267Z,24.79
2016-09-13T12:27:34.263Z,24.86
2016-09-13T12:28:33.928Z,24.77
2016-09-13T12:29:33.920Z,24.75
2016-09-13T12:30:34.214Z,24.77
2016-09-13T12:31:34.195Z,24.8
2016-09-13T12:32:34.181Z,24.74
2016-09-13T12:33:34.172Z,24.77
2016-09-13T12:34:34.156Z,24.77
2016-09-13T12:35:33.829Z,24.77
2016-09-13T12:36:33.814Z,24.79
2016-09-13T12:37:33.803Z,24.84
2016-09-13T12:38:33.792Z,24.75
2016-09-13T12:39:33.450Z,24.83
2016-09-13T12:40:34.078Z,24.86
2016-09-13T12:41:33.738Z,24.82
2016-09-13T12:42:33.727Z,24.94
2016-09-13T12:43:33.401Z,24.77
2016-09-13T12:44:33.716Z,24.92
2016-09-13T12:45:33.691Z,24.84
2016-09-13T12:46:33.670Z,24.83
2016-09-13T12:47:33.975Z,24.86
2016-09-13T12:48:33.332Z,24.87
2016-09-13T12:49:33.939Z,24.8
2016-09-13T12:50:33.613Z,24.74
2016-09-13T12:51:33.926Z,24.87
2016-09-13T12:52:33.897Z,24.89
2016-09-13T12:53:33.880Z,24.89
2016-09-13T12:54:33.560Z,24.84
2016-09-13T12:55:33.860Z,24.83
2016-09-13T12:56:33.213Z,24.82
2016-09-13T12:57:33.834Z,24.87
2016-09-13T12:58:33.499Z,24.79
2016-09-13T12:59:33.807Z,24.83
2016-09-13T13:00:33.474Z,24.86
2016-09-13T13:01:33.775Z,24.93
2016-09-13T13:02:33.748Z,24.97
2016-09-13T13:03:33.744Z,24.92
2016-09-13T13:04:33.423Z,24.84
2016-09-13T13:05:33.715Z,24.84
2016-09-13T13:06:33.722Z,24.97
2016-09-13T13:07:33.371Z,24.97
2016-09-13T13:08:33.667Z,24.83
2016-09-13T13:09:33.668Z,24.87
2016-09-13T13:10:33.645Z,24.92
2016-09-13T13:11:33.634Z,24.89
2016-09-13T13:12:33.617Z,24.93
2016-09-13T13:13:33.282Z,24.94